sensor_id;sensor_type;location;lat;lon;timestamp;pressure;altitude;pressure_sealevel;temperature;humidity
63433;BME280;49564;59.406;24.724;2023-11-22T00:00:26;102402.52;;;0.44;30.32
63433;BME280;49564;59.406;24.724;2023-11-22T00:02:54;102404.86;;;0.54;30.33
63433;BME280;49564;59.406;24.724;2023-11-22T00:05:22;102403.85;;;0.44;30.35
63433;BME280;49564;59.406;24.724;2023-11-22T00:07:49;102402.18;;;0.24;30.33
63433;BME280;49564;59.406;24.724;2023-11-22T00:10:17;102401.23;;;0.70;30.29
63433;BME280;49564;59.406;24.724;2023-11-22T00:12:44;102397.66;;;0.31;30.27
63433;BME280;49564;59.406;24.724;2023-11-22T00:15:10;102397.27;;;0.71;30.28
63433;BME280;49564;59.406;24.724;2023-11-22T00:17:38;102393.68;;;0.61;30.53
63433;BME280;49564;59.406;24.724;2023-11-22T00:20:08;102388.78;;;0.35;30.39
63433;BME280;49564;59.406;24.724;2023-11-22T00:22:35;102385.80;;;0.67;30.44
63433;BME280;49564;59.406;24.724;2023-11-22T00:25:03;102385.19;;;0.35;30.46
63433;BME280;49564;59.406;24.724;2023-11-22T00:27:31;102383.22;;;0.41;30.45
63433;BME280;49564;59.406;24.724;2023-11-22T00:30:00;102381.01;;;0.55;30.50
63433;BME280;49564;59.406;24.724;2023-11-22T00:32:27;102377.19;;;0.55;30.59
63433;BME280;49564;59.406;24.724;2023-11-22T00:34:56;102375.46;;;0.35;30.55
63433;BME280;49564;59.406;24.724;2023-11-22T00:37:23;102375.96;;;0.29;30.59
63433;BME280;49564;59.406;24.724;2023-11-22T00:39:51;102378.90;;;0.50;30.69
63433;BME280;49564;59.406;24.724;2023-11-22T00:42:18;102375.15;;;0.55;30.60
63433;BME280;49564;59.406;24.724;2023-11-22T00:44:46;102375.22;;;0.42;30.72
63433;BME280;49564;59.406;24.724;2023-11-22T00:47:14;102372.59;;;0.42;30.76
63433;BME280;49564;59.406;24.724;2023-11-22T00:49:41;102372.68;;;0.44;30.68
63433;BME280;49564;59.406;24.724;2023-11-22T00:52:08;102370.66;;;0.46;30.71
63433;BME280;49564;59.406;24.724;2023-11-22T00:54:35;102366.07;;;0.41;30.82
63433;BME280;49564;59.406;24.724;2023-11-22T00:57:04;102367.02;;;0.47;30.71
63433;BME280;49564;59.406;24.724;2023-11-22T00:59:32;102363.91;;;0.29;30.89
63433;BME280;49564;59.406;24.724;2023-11-22T01:01:59;102362.44;;;0.38;30.85
63433;BME280;49564;59.406;24.724;2023-11-22T01:04:26;102358.28;;;0.37;30.90
63433;BME280;49564;59.406;24.724;2023-11-22T01:06:53;102355.96;;;0.40;30.78
63433;BME280;49564;59.406;24.724;2023-11-22T01:09:21;102356.41;;;0.16;31.00
63433;BME280;49564;59.406;24.724;2023-11-22T01:11:48;102354.92;;;0.32;30.87
63433;BME280;49564;59.406;24.724;2023-11-22T01:14:16;102354.73;;;0.26;31.00
63433;BME280;49564;59.406;24.724;2023-11-22T01:16:44;102350.48;;;0.15;30.85
63433;BME280;49564;59.406;24.724;2023-11-22T01:19:11;102353.55;;;0.33;30.99
63433;BME280;49564;59.406;24.724;2023-11-22T01:21:39;102354.94;;;-0.00;31.07
63433;BME280;49564;59.406;24.724;2023-11-22T01:24:08;102351.62;;;0.34;30.96
63433;BME280;49564;59.406;24.724;2023-11-22T01:26:36;102351.04;;;0.23;30.99
63433;BME280;49564;59.406;24.724;2023-11-22T01:29:04;102348.22;;;0.22;31.03
63433;BME280;49564;59.406;24.724;2023-11-22T01:31:32;102346.49;;;0.28;30.97
63433;BME280;49564;59.406;24.724;2023-11-22T01:34:00;102349.54;;;0.21;31.02
63433;BME280;49564;59.406;24.724;2023-11-22T01:36:28;102353.36;;;0.28;30.97
63433;BME280;49564;59.406;24.724;2023-11-22T01:38:56;102352.09;;;0.29;30.97
63433;BME280;49564;59.406;24.724;2023-11-22T01:41:24;102352.22;;;0.23;31.01
63433;BME280;49564;59.406;24.724;2023-11-22T01:43:53;102346.87;;;0.29;30.96
63433;BME280;49564;59.406;24.724;2023-11-22T01:46:23;102347.52;;;0.22;31.04
63433;BME280;49564;59.406;24.724;2023-11-22T01:48:52;102350.67;;;0.27;31.08
63433;BME280;49564;59.406;24.724;2023-11-22T01:51:20;102348.43;;;0.25;31.02
63433;BME280;49564;59.406;24.724;2023-11-22T01:53:51;102349.63;;;0.23;31.15
63433;BME280;49564;59.406;24.724;2023-11-22T01:56:20;102350.90;;;0.18;31.09
63433;BME280;49564;59.406;24.724;2023-11-22T01:58:48;102349.55;;;0.17;31.20
63433;BME280;49564;59.406;24.724;2023-11-22T02:01:16;102351.11;;;0.11;31.31
63433;BME280;49564;59.406;24.724;2023-11-22T02:03:45;102351.43;;;0.43;31.26
63433;BME280;49564;59.406;24.724;2023-11-22T02:06:15;102348.16;;;0.25;31.17
63433;BME280;49564;59.406;24.724;2023-11-22T02:08:42;102342.62;;;0.14;31.29
63433;BME280;49564;59.406;24.724;2023-11-22T02:11:10;102342.97;;;0.16;31.24
63433;BME280;49564;59.406;24.724;2023-11-22T02:13:38;102345.64;;;0.22;31.25
63433;BME280;49564;59.406;24.724;2023-11-22T02:16:05;102355.16;;;0.26;31.15
63433;BME280;49564;59.406;24.724;2023-11-22T02:18:33;102355.70;;;0.27;31.13
63433;BME280;49564;59.406;24.724;2023-11-22T02:21:01;102355.50;;;0.01;31.15
63433;BME280;49564;59.406;24.724;2023-11-22T02:23:29;102358.50;;;-0.33;31.20
63433;BME280;49564;59.406;24.724;2023-11-22T02:25:56;102356.99;;;0.22;31.11
63433;BME280;49564;59.406;24.724;2023-11-22T02:28:23;102353.19;;;0.27;30.98
63433;BME280;49564;59.406;24.724;2023-11-22T02:30:50;102355.47;;;0.21;31.12
63433;BME280;49564;59.406;24.724;2023-11-22T02:33:17;102355.94;;;0.21;31.16
63433;BME280;49564;59.406;24.724;2023-11-22T02:35:45;102355.36;;;0.21;30.96
63433;BME280;49564;59.406;24.724;2023-11-22T02:38:12;102353.89;;;0.20;30.98
63433;BME280;49564;59.406;24.724;2023-11-22T02:40:39;102353.86;;;0.25;31.04
63433;BME280;49564;59.406;24.724;2023-11-22T02:43:07;102353.35;;;0.17;30.98
63433;BME280;49564;59.406;24.724;2023-11-22T02:45:35;102353.37;;;0.21;30.91
63433;BME280;49564;59.406;24.724;2023-11-22T02:48:02;102352.57;;;0.18;30.83
63433;BME280;49564;59.406;24.724;2023-11-22T02:50:30;102347.35;;;0.07;30.91
63433;BME280;49564;59.406;24.724;2023-11-22T02:52:58;102345.25;;;0.17;30.84
63433;BME280;49564;59.406;24.724;2023-11-22T02:55:26;102340.85;;;0.10;30.90
63433;BME280;49564;59.406;24.724;2023-11-22T02:57:54;102338.90;;;0.06;30.95
63433;BME280;49564;59.406;24.724;2023-11-22T03:00:22;102336.26;;;0.05;30.90
63433;BME280;49564;59.406;24.724;2023-11-22T03:02:49;102332.10;;;0.15;30.77
63433;BME280;49564;59.406;24.724;2023-11-22T03:05:16;102325.13;;;0.08;30.79
63433;BME280;49564;59.406;24.724;2023-11-22T03:07:44;102324.03;;;0.10;30.74
63433;BME280;49564;59.406;24.724;2023-11-22T03:10:11;102318.79;;;0.08;30.76
63433;BME280;49564;59.406;24.724;2023-11-22T03:12:38;102317.18;;;0.05;30.86
63433;BME280;49564;59.406;24.724;2023-11-22T03:15:07;102310.57;;;0.27;30.72
63433;BME280;49564;59.406;24.724;2023-11-22T03:17:35;102306.33;;;0.09;30.78
63433;BME280;49564;59.406;24.724;2023-11-22T03:20:03;102299.89;;;-0.02;30.69
63433;BME280;49564;59.406;24.724;2023-11-22T03:22:31;102298.73;;;0.03;30.78
63433;BME280;49564;59.406;24.724;2023-11-22T03:24:58;102292.41;;;-0.07;30.79
63433;BME280;49564;59.406;24.724;2023-11-22T03:27:26;102299.17;;;0.04;30.65
63433;BME280;49564;59.406;24.724;2023-11-22T03:29:54;102300.30;;;0.04;30.55
63433;BME280;49564;59.406;24.724;2023-11-22T03:32:21;102305.49;;;0.02;30.65
63433;BME280;49564;59.406;24.724;2023-11-22T03:34:48;102307.48;;;-0.01;30.64
63433;BME280;49564;59.406;24.724;2023-11-22T03:37:15;102312.21;;;0.06;30.71
63433;BME280;49564;59.406;24.724;2023-11-22T03:39:43;102315.57;;;0.12;30.72
63433;BME280;49564;59.406;24.724;2023-11-22T03:42:10;102312.99;;;0.01;30.74
63433;BME280;49564;59.406;24.724;2023-11-22T03:44:37;102315.17;;;0.04;30.47
63433;BME280;49564;59.406;24.724;2023-11-22T03:47:05;102311.23;;;0.14;30.76
63433;BME280;49564;59.406;24.724;2023-11-22T03:49:32;102310.95;;;-0.06;30.79
63433;BME280;49564;59.406;24.724;2023-11-22T03:51:59;102310.44;;;-0.18;30.76
63433;BME280;49564;59.406;24.724;2023-11-22T03:54:27;102308.15;;;-0.10;30.70
63433;BME280;49564;59.406;24.724;2023-11-22T03:56:54;102302.71;;;-0.04;30.63
63433;BME280;49564;59.406;24.724;2023-11-22T03:59:21;102306.06;;;-0.06;30.58
63433;BME280;49564;59.406;24.724;2023-11-22T04:01:48;102302.44;;;-0.15;30.75
63433;BME280;49564;59.406;24.724;2023-11-22T04:04:16;102304.36;;;-0.08;30.46
63433;BME280;49564;59.406;24.724;2023-11-22T04:06:44;102298.29;;;-0.08;30.57
63433;BME280;49564;59.406;24.724;2023-11-22T04:09:12;102296.94;;;-0.09;30.51
63433;BME280;49564;59.406;24.724;2023-11-22T04:11:40;102298.60;;;-0.13;30.62
63433;BME280;49564;59.406;24.724;2023-11-22T04:14:07;102299.18;;;0.01;30.54
63433;BME280;49564;59.406;24.724;2023-11-22T04:16:34;102291.15;;;-0.04;30.49
63433;BME280;49564;59.406;24.724;2023-11-22T04:19:02;102287.57;;;0.19;30.53
63433;BME280;49564;59.406;24.724;2023-11-22T04:21:29;102286.09;;;0.21;30.49
63433;BME280;49564;59.406;24.724;2023-11-22T04:23:56;102285.98;;;-0.09;30.59
63433;BME280;49564;59.406;24.724;2023-11-22T04:26:23;102287.14;;;-0.10;30.61
63433;BME280;49564;59.406;24.724;2023-11-22T04:28:51;102283.90;;;-0.05;30.52
63433;BME280;49564;59.406;24.724;2023-11-22T04:31:18;102284.45;;;-0.04;30.48
63433;BME280;49564;59.406;24.724;2023-11-22T04:33:46;102280.39;;;-0.09;30.49
63433;BME280;49564;59.406;24.724;2023-11-22T04:36:13;102271.69;;;-0.06;30.51
63433;BME280;49564;59.406;24.724;2023-11-22T04:38:41;102272.95;;;-0.04;30.37
63433;BME280;49564;59.406;24.724;2023-11-22T04:41:08;102272.15;;;-0.15;30.61
63433;BME280;49564;59.406;24.724;2023-11-22T04:43:37;102268.07;;;-0.14;30.45
63433;BME280;49564;59.406;24.724;2023-11-22T04:46:06;102265.77;;;-0.10;30.49
63433;BME280;49564;59.406;24.724;2023-11-22T04:48:33;102268.69;;;-0.16;30.50
63433;BME280;49564;59.406;24.724;2023-11-22T04:51:01;102270.44;;;-0.11;30.54
63433;BME280;49564;59.406;24.724;2023-11-22T04:53:29;102277.69;;;-0.10;30.51
63433;BME280;49564;59.406;24.724;2023-11-22T04:55:56;102278.81;;;0.11;30.56
63433;BME280;49564;59.406;24.724;2023-11-22T04:58:25;102277.91;;;-0.17;30.57
63433;BME280;49564;59.406;24.724;2023-11-22T05:00:53;102275.46;;;-0.23;30.68
63433;BME280;49564;59.406;24.724;2023-11-22T05:03:21;102273.68;;;-0.38;30.52
63433;BME280;49564;59.406;24.724;2023-11-22T05:05:48;102267.76;;;-0.24;30.52
63433;BME280;49564;59.406;24.724;2023-11-22T05:08:16;102264.40;;;-0.16;30.40
63433;BME280;49564;59.406;24.724;2023-11-22T05:10:45;102260.59;;;-0.11;30.51
63433;BME280;49564;59.406;24.724;2023-11-22T05:13:13;102258.57;;;-0.18;30.49
63433;BME280;49564;59.406;24.724;2023-11-22T05:15:40;102254.83;;;-0.05;30.37
63433;BME280;49564;59.406;24.724;2023-11-22T05:18:08;102253.20;;;-0.10;30.34
63433;BME280;49564;59.406;24.724;2023-11-22T05:20:36;102251.10;;;-0.10;30.28
63433;BME280;49564;59.406;24.724;2023-11-22T05:23:03;102250.79;;;-0.25;30.40
63433;BME280;49564;59.406;24.724;2023-11-22T05:25:30;102250.44;;;-0.15;30.39
63433;BME280;49564;59.406;24.724;2023-11-22T05:27:58;102248.57;;;-0.15;30.42
63433;BME280;49564;59.406;24.724;2023-11-22T05:30:25;102244.72;;;0.09;30.33
63433;BME280;49564;59.406;24.724;2023-11-22T05:32:53;102241.21;;;-0.11;30.37
63433;BME280;49564;59.406;24.724;2023-11-22T05:35:20;102238.99;;;0.03;30.51
63433;BME280;49564;59.406;24.724;2023-11-22T05:37:47;102237.38;;;-0.27;30.28
63433;BME280;49564;59.406;24.724;2023-11-22T05:40:15;102236.10;;;-0.19;30.32
63433;BME280;49564;59.406;24.724;2023-11-22T05:42:43;102235.95;;;-0.33;30.44
63433;BME280;49564;59.406;24.724;2023-11-22T05:45:11;102233.47;;;-0.34;30.25
63433;BME280;49564;59.406;24.724;2023-11-22T05:47:41;102236.10;;;-0.26;30.38
63433;BME280;49564;59.406;24.724;2023-11-22T05:50:10;102236.58;;;-0.16;30.25
63433;BME280;49564;59.406;24.724;2023-11-22T05:52:37;102237.90;;;-0.25;30.08
63433;BME280;49564;59.406;24.724;2023-11-22T05:55:07;102234.33;;;-0.19;30.27
63433;BME280;49564;59.406;24.724;2023-11-22T05:57:36;102228.93;;;-0.58;30.12
63433;BME280;49564;59.406;24.724;2023-11-22T06:00:05;102228.60;;;-0.36;30.33
63433;BME280;49564;59.406;24.724;2023-11-22T06:02:32;102226.13;;;-0.25;30.32
63433;BME280;49564;59.406;24.724;2023-11-22T06:05:01;102224.86;;;-0.28;30.30
63433;BME280;49564;59.406;24.724;2023-11-22T06:07:29;102223.81;;;-0.04;30.21
63433;BME280;49564;59.406;24.724;2023-11-22T06:09:56;102222.25;;;-0.07;30.22
63433;BME280;49564;59.406;24.724;2023-11-22T06:12:25;102224.33;;;-0.12;30.24
63433;BME280;49564;59.406;24.724;2023-11-22T06:14:53;102220.76;;;-0.10;30.29
63433;BME280;49564;59.406;24.724;2023-11-22T06:17:20;102222.80;;;-0.40;30.29
63433;BME280;49564;59.406;24.724;2023-11-22T06:19:48;102221.41;;;-0.14;30.27
63433;BME280;49564;59.406;24.724;2023-11-22T06:22:16;102222.23;;;-0.35;30.30
63433;BME280;49564;59.406;24.724;2023-11-22T06:24:44;102230.71;;;-0.13;30.27
63433;BME280;49564;59.406;24.724;2023-11-22T06:27:12;102227.52;;;-0.37;30.21
63433;BME280;49564;59.406;24.724;2023-11-22T06:29:40;102225.89;;;-0.23;30.24
63433;BME280;49564;59.406;24.724;2023-11-22T06:32:08;102227.41;;;-0.47;30.36
63433;BME280;49564;59.406;24.724;2023-11-22T06:34:35;102227.33;;;-0.23;30.32
63433;BME280;49564;59.406;24.724;2023-11-22T06:37:03;102222.25;;;-0.52;30.33
63433;BME280;49564;59.406;24.724;2023-11-22T06:39:30;102220.64;;;-0.10;30.49
63433;BME280;49564;59.406;24.724;2023-11-22T06:41:58;102218.79;;;-0.31;30.37
63433;BME280;49564;59.406;24.724;2023-11-22T06:44:26;102215.95;;;-0.30;30.45
63433;BME280;49564;59.406;24.724;2023-11-22T06:46:54;102216.05;;;-0.50;30.47
63433;BME280;49564;59.406;24.724;2023-11-22T06:49:22;102219.86;;;-0.54;30.47
63433;BME280;49564;59.406;24.724;2023-11-22T06:51:53;102220.91;;;-0.36;30.45
63433;BME280;49564;59.406;24.724;2023-11-22T06:54:20;102215.43;;;-0.51;30.51
63433;BME280;49564;59.406;24.724;2023-11-22T06:56:49;102208.92;;;-0.46;30.47
63433;BME280;49564;59.406;24.724;2023-11-22T06:59:16;102205.56;;;-0.36;30.62
63433;BME280;49564;59.406;24.724;2023-11-22T07:01:44;102199.90;;;-0.56;30.61
63433;BME280;49564;59.406;24.724;2023-11-22T07:04:11;102199.40;;;-0.50;30.57
63433;BME280;49564;59.406;24.724;2023-11-22T07:06:39;102198.47;;;-0.33;30.61
63433;BME280;49564;59.406;24.724;2023-11-22T07:09:06;102193.06;;;-0.32;30.44
63433;BME280;49564;59.406;24.724;2023-11-22T07:11:35;102191.44;;;-0.33;30.55
63433;BME280;49564;59.406;24.724;2023-11-22T07:14:03;102187.31;;;-0.17;30.39
63433;BME280;49564;59.406;24.724;2023-11-22T07:16:30;102183.67;;;-0.00;30.26
63433;BME280;49564;59.406;24.724;2023-11-22T07:18:58;102178.74;;;0.00;30.22
63433;BME280;49564;59.406;24.724;2023-11-22T07:21:26;102179.22;;;0.20;30.23
63433;BME280;49564;59.406;24.724;2023-11-22T07:23:55;102173.02;;;0.35;30.03
63433;BME280;49564;59.406;24.724;2023-11-22T07:26:22;102168.07;;;0.43;29.89
63433;BME280;49564;59.406;24.724;2023-11-22T07:28:50;102165.95;;;0.50;29.88
63433;BME280;49564;59.406;24.724;2023-11-22T07:31:17;102164.50;;;0.63;29.83
63433;BME280;49564;59.406;24.724;2023-11-22T07:33:44;102159.63;;;0.70;29.76
63433;BME280;49564;59.406;24.724;2023-11-22T07:36:11;102152.28;;;0.62;29.54
63433;BME280;49564;59.406;24.724;2023-11-22T07:38:38;102150.25;;;0.67;29.54
63433;BME280;49564;59.406;24.724;2023-11-22T07:41:06;102148.28;;;0.51;29.48
63433;BME280;49564;59.406;24.724;2023-11-22T07:43:33;102148.46;;;0.75;29.47
63433;BME280;49564;59.406;24.724;2023-11-22T07:46:06;102146.68;;;0.57;29.45
63433;BME280;49564;59.406;24.724;2023-11-22T07:48:33;102143.29;;;0.30;29.44
63433;BME280;49564;59.406;24.724;2023-11-22T07:51:01;102132.00;;;0.34;29.37
63433;BME280;49564;59.406;24.724;2023-11-22T07:53:28;102129.37;;;0.84;29.47
63433;BME280;49564;59.406;24.724;2023-11-22T07:55:56;102131.65;;;0.86;29.48
63433;BME280;49564;59.406;24.724;2023-11-22T07:58:22;102132.49;;;0.93;29.55
63433;BME280;49564;59.406;24.724;2023-11-22T08:00:49;102130.59;;;0.97;29.53
63433;BME280;49564;59.406;24.724;2023-11-22T08:03:17;102130.91;;;0.75;29.42
63433;BME280;49564;59.406;24.724;2023-11-22T08:05:44;102132.98;;;0.77;29.46
63433;BME280;49564;59.406;24.724;2023-11-22T08:08:11;102127.47;;;1.02;29.41
63433;BME280;49564;59.406;24.724;2023-11-22T08:10:38;102115.50;;;0.87;29.52
63433;BME280;49564;59.406;24.724;2023-11-22T08:13:05;102112.93;;;1.10;29.57
63433;BME280;49564;59.406;24.724;2023-11-22T08:15:32;102115.63;;;0.84;29.79
63433;BME280;49564;59.406;24.724;2023-11-22T08:17:59;102110.74;;;0.58;29.93
63433;BME280;49564;59.406;24.724;2023-11-22T08:20:25;102104.31;;;0.65;30.14
63433;BME280;49564;59.406;24.724;2023-11-22T08:22:52;102092.95;;;1.12;30.24
63433;BME280;49564;59.406;24.724;2023-11-22T08:25:19;102083.82;;;0.65;30.50
63433;BME280;49564;59.406;24.724;2023-11-22T08:27:47;102079.72;;;1.17;30.75
63433;BME280;49564;59.406;24.724;2023-11-22T08:30:14;102082.23;;;0.67;30.90
63433;BME280;49564;59.406;24.724;2023-11-22T08:32:42;102074.99;;;0.69;31.06
63433;BME280;49564;59.406;24.724;2023-11-22T08:35:10;102070.18;;;0.99;31.24
63433;BME280;49564;59.406;24.724;2023-11-22T08:37:40;102069.73;;;0.70;31.27
63433;BME280;49564;59.406;24.724;2023-11-22T08:40:09;102071.20;;;0.72;31.34
63433;BME280;49564;59.406;24.724;2023-11-22T08:42:36;102073.42;;;0.79;31.22
63433;BME280;49564;59.406;24.724;2023-11-22T08:45:03;102072.46;;;0.79;31.31
63433;BME280;49564;59.406;24.724;2023-11-22T08:47:31;102073.09;;;1.11;31.38
63433;BME280;49564;59.406;24.724;2023-11-22T08:49:58;102074.31;;;0.82;31.46
63433;BME280;49564;59.406;24.724;2023-11-22T08:52:26;102071.69;;;0.89;31.39
63433;BME280;49564;59.406;24.724;2023-11-22T08:54:53;102075.18;;;0.88;31.41
63433;BME280;49564;59.406;24.724;2023-11-22T08:57:21;102070.03;;;1.16;31.51
63433;BME280;49564;59.406;24.724;2023-11-22T08:59:48;102064.36;;;1.20;31.44
63433;BME280;49564;59.406;24.724;2023-11-22T09:02:15;102059.38;;;0.95;31.37
63433;BME280;49564;59.406;24.724;2023-11-22T09:04:42;102052.45;;;1.02;31.36
63433;BME280;49564;59.406;24.724;2023-11-22T09:07:09;102048.88;;;0.95;31.46
63433;BME280;49564;59.406;24.724;2023-11-22T09:09:36;102045.50;;;1.07;31.35
63433;BME280;49564;59.406;24.724;2023-11-22T09:12:05;102038.24;;;1.14;31.38
63433;BME280;49564;59.406;24.724;2023-11-22T09:14:32;102028.90;;;1.17;31.36
63433;BME280;49564;59.406;24.724;2023-11-22T09:16:59;102024.94;;;1.20;31.34
63433;BME280;49564;59.406;24.724;2023-11-22T09:19:27;102014.62;;;1.21;31.38
63433;BME280;49564;59.406;24.724;2023-11-22T09:21:54;102002.52;;;1.28;31.41
63433;BME280;49564;59.406;24.724;2023-11-22T09:24:22;101995.57;;;1.27;31.53
63433;BME280;49564;59.406;24.724;2023-11-22T09:26:50;101977.82;;;1.35;31.36
63433;BME280;49564;59.406;24.724;2023-11-22T09:29:17;101965.42;;;1.40;31.56
63433;BME280;49564;59.406;24.724;2023-11-22T09:31:44;101958.39;;;1.43;31.40
63433;BME280;49564;59.406;24.724;2023-11-22T09:34:11;101978.78;;;1.57;31.40
63433;BME280;49564;59.406;24.724;2023-11-22T09:36:38;101988.99;;;1.53;31.42
63433;BME280;49564;59.406;24.724;2023-11-22T09:39:06;101980.37;;;1.37;31.49
63433;BME280;49564;59.406;24.724;2023-11-22T09:41:33;101972.05;;;1.64;31.44
63433;BME280;49564;59.406;24.724;2023-11-22T09:44:01;101971.99;;;1.47;31.36
63433;BME280;49564;59.406;24.724;2023-11-22T09:46:28;101955.31;;;1.41;31.50
63433;BME280;49564;59.406;24.724;2023-11-22T09:48:56;101954.58;;;1.31;31.46
63433;BME280;49564;59.406;24.724;2023-11-22T09:51:24;101949.66;;;1.73;31.52
63433;BME280;49564;59.406;24.724;2023-11-22T09:53:56;101945.56;;;1.49;31.66
63433;BME280;49564;59.406;24.724;2023-11-22T09:56:25;101933.13;;;1.58;31.60
63433;BME280;49564;59.406;24.724;2023-11-22T09:58:54;101923.31;;;1.86;31.55
63433;BME280;49564;59.406;24.724;2023-11-22T10:01:22;101925.29;;;1.85;31.63
63433;BME280;49564;59.406;24.724;2023-11-22T10:03:50;101917.84;;;1.82;31.72
63433;BME280;49564;59.406;24.724;2023-11-22T10:06:18;101914.16;;;1.66;31.72
63433;BME280;49564;59.406;24.724;2023-11-22T10:08:45;101917.54;;;1.64;31.79
63433;BME280;49564;59.406;24.724;2023-11-22T10:11:13;101916.25;;;1.86;31.80
63433;BME280;49564;59.406;24.724;2023-11-22T10:13:41;101914.84;;;1.71;31.76
63433;BME280;49564;59.406;24.724;2023-11-22T10:16:10;101908.30;;;1.89;31.90
63433;BME280;49564;59.406;24.724;2023-11-22T10:18:40;101903.63;;;1.70;31.88
63433;BME280;49564;59.406;24.724;2023-11-22T10:21:20;101895.79;;;1.74;31.88
63433;BME280;49564;59.406;24.724;2023-11-22T10:23:47;101895.87;;;1.68;31.95
63433;BME280;49564;59.406;24.724;2023-11-22T10:26:14;101895.27;;;1.68;32.06
63433;BME280;49564;59.406;24.724;2023-11-22T10:28:42;101889.92;;;1.74;31.97
63433;BME280;49564;59.406;24.724;2023-11-22T10:31:09;101881.24;;;1.71;32.05
63433;BME280;49564;59.406;24.724;2023-11-22T10:33:39;101866.81;;;1.72;32.08
63433;BME280;49564;59.406;24.724;2023-11-22T10:36:07;101866.12;;;1.52;32.05
63433;BME280;49564;59.406;24.724;2023-11-22T10:38:34;101863.22;;;1.76;32.11
63433;BME280;49564;59.406;24.724;2023-11-22T10:41:04;101852.65;;;1.73;32.13
63433;BME280;49564;59.406;24.724;2023-11-22T10:43:31;101854.55;;;1.79;32.57
63433;BME280;49564;59.406;24.724;2023-11-22T10:46:01;101849.07;;;1.68;32.32
63433;BME280;49564;59.406;24.724;2023-11-22T10:48:29;101841.23;;;1.63;32.45
63433;BME280;49564;59.406;24.724;2023-11-22T10:50:57;101839.20;;;1.55;32.59
63433;BME280;49564;59.406;24.724;2023-11-22T10:53:32;101841.92;;;1.41;32.81
63433;BME280;49564;59.406;24.724;2023-11-22T10:56:04;101838.41;;;1.49;32.79
63433;BME280;49564;59.406;24.724;2023-11-22T10:58:33;101838.36;;;1.61;32.95
63433;BME280;49564;59.406;24.724;2023-11-22T11:01:04;101832.26;;;1.37;33.06
63433;BME280;49564;59.406;24.724;2023-11-22T11:03:37;101829.36;;;1.50;33.24
63433;BME280;49564;59.406;24.724;2023-11-22T11:06:05;101816.52;;;1.66;33.00
63433;BME280;49564;59.406;24.724;2023-11-22T11:08:37;101801.57;;;1.67;33.04
63433;BME280;49564;59.406;24.724;2023-11-22T11:11:05;101784.41;;;1.48;33.01
63433;BME280;49564;59.406;24.724;2023-11-22T11:13:32;101779.19;;;1.50;33.03
63433;BME280;49564;59.406;24.724;2023-11-22T11:15:59;101773.45;;;1.76;32.99
63433;BME280;49564;59.406;24.724;2023-11-22T11:18:27;101766.80;;;1.71;33.16
63433;BME280;49564;59.406;24.724;2023-11-22T11:20:56;101756.38;;;1.43;33.31
63433;BME280;49564;59.406;24.724;2023-11-22T11:23:25;101749.20;;;1.04;33.66
63433;BME280;49564;59.406;24.724;2023-11-22T11:25:53;101738.01;;;1.28;34.02
63433;BME280;49564;59.406;24.724;2023-11-22T11:28:21;101738.75;;;1.25;33.80
63433;BME280;49564;59.406;24.724;2023-11-22T11:30:49;101727.85;;;1.42;34.00
63433;BME280;49564;59.406;24.724;2023-11-22T11:33:19;101724.51;;;1.41;34.01
63433;BME280;49564;59.406;24.724;2023-11-22T11:35:48;101715.01;;;1.36;34.11
63433;BME280;49564;59.406;24.724;2023-11-22T11:38:16;101702.30;;;1.45;33.98
63433;BME280;49564;59.406;24.724;2023-11-22T11:40:47;101685.09;;;1.48;33.98
63433;BME280;49564;59.406;24.724;2023-11-22T11:43:14;101685.23;;;1.33;33.94
63433;BME280;49564;59.406;24.724;2023-11-22T11:45:43;101681.84;;;1.56;34.11
63433;BME280;49564;59.406;24.724;2023-11-22T11:48:09;101677.53;;;1.43;34.32
63433;BME280;49564;59.406;24.724;2023-11-22T11:50:37;101673.62;;;1.25;34.26
63433;BME280;49564;59.406;24.724;2023-11-22T11:53:04;101666.35;;;1.47;34.32
63433;BME280;49564;59.406;24.724;2023-11-22T11:55:31;101658.43;;;1.21;34.27
63433;BME280;49564;59.406;24.724;2023-11-22T11:58:04;101659.74;;;1.48;34.32
63433;BME280;49564;59.406;24.724;2023-11-22T12:00:32;101653.71;;;1.49;34.40
63433;BME280;49564;59.406;24.724;2023-11-22T12:02:58;101650.91;;;1.47;34.60
63433;BME280;49564;59.406;24.724;2023-11-22T12:05:25;101643.38;;;1.48;34.48
63433;BME280;49564;59.406;24.724;2023-11-22T12:07:52;101632.43;;;1.43;34.60
63433;BME280;49564;59.406;24.724;2023-11-22T12:10:20;101635.09;;;1.50;34.68
63433;BME280;49564;59.406;24.724;2023-11-22T12:12:47;101621.68;;;1.46;34.62
63433;BME280;49564;59.406;24.724;2023-11-22T12:15:14;101604.63;;;1.34;34.92
63433;BME280;49564;59.406;24.724;2023-11-22T12:17:42;101592.23;;;1.46;34.72
63433;BME280;49564;59.406;24.724;2023-11-22T12:20:11;101583.64;;;1.31;34.66
63433;BME280;49564;59.406;24.724;2023-11-22T12:22:39;101581.99;;;1.36;34.55
63433;BME280;49564;59.406;24.724;2023-11-22T12:25:07;101590.07;;;1.58;34.69
63433;BME280;49564;59.406;24.724;2023-11-22T12:27:34;101590.88;;;1.42;34.91
63433;BME280;49564;59.406;24.724;2023-11-22T12:30:07;101589.69;;;1.15;34.66
63433;BME280;49564;59.406;24.724;2023-11-22T12:32:34;101579.30;;;1.60;34.60
63433;BME280;49564;59.406;24.724;2023-11-22T12:35:01;101577.63;;;1.58;34.64
63433;BME280;49564;59.406;24.724;2023-11-22T12:37:29;101572.56;;;1.56;34.83
63433;BME280;49564;59.406;24.724;2023-11-22T12:39:56;101573.12;;;1.20;34.89
63433;BME280;49564;59.406;24.724;2023-11-22T12:42:25;101569.95;;;1.64;34.70
63433;BME280;49564;59.406;24.724;2023-11-22T12:44:52;101557.74;;;1.69;34.64
63433;BME280;49564;59.406;24.724;2023-11-22T12:47:31;101552.90;;;1.70;34.64
63433;BME280;49564;59.406;24.724;2023-11-22T12:49:58;101552.73;;;1.45;34.81